Time;durP1;ratioP1;P1;durP2;ratioP2;P2;SDS_P1;SDS_P2;PMS_P1;PMS_P2;Temp;Humidity;BMP_temperature;BMP_pressure;BME280_temperature;BME280_humidity;BME280_pressure;Samples;Min_cycle;Max_cycle;Signal;HPM_P1;HPM_P2
2022/06/09 00:01:38;;;;;;;4.10;3.70;;;20.00;99.90;;;;;;5015619;28;20189;-73
2022/06/09 00:04:09;;;;;;;4.57;4.17;;;20.00;99.90;;;;;;5011945;28;20191;-73
2022/06/09 00:06:40;;;;;;;6.27;4.60;;;20.00;99.90;;;;;;5017253;28;20303;-75
2022/06/09 00:09:06;;;;;;;2.97;2.60;;;19.90;99.90;;;;;;5011850;28;20329;-74
2022/06/09 00:11:35;;;;;;;3.83;2.80;;;19.90;99.90;;;;;;5016197;28;20187;-73
2022/06/09 00:14:00;;;;;;;2.40;2.03;;;19.80;99.90;;;;;;5014463;28;20199;-74
2022/06/09 00:16:26;;;;;;;2.67;2.33;;;19.70;99.90;;;;;;5017708;28;20195;-74
2022/06/09 00:18:51;;;;;;;2.60;2.40;;;19.60;99.90;;;;;;5012069;28;20210;-74
2022/06/09 00:21:17;;;;;;;2.60;2.40;;;19.50;99.90;;;;;;5015893;28;20198;-74
2022/06/09 00:23:43;;;;;;;2.40;2.07;;;19.40;99.90;;;;;;5014542;28;20945;-72
2022/06/09 00:26:08;;;;;;;2.37;2.17;;;19.40;99.90;;;;;;5015123;28;20210;-71
2022/06/09 00:28:34;;;;;;;4.97;2.43;;;19.30;99.90;;;;;;5019097;28;20287;-72
2022/06/09 00:31:00;;;;;;;2.90;2.40;;;19.30;99.90;;;;;;5034982;28;20657;-72
2022/06/09 00:33:26;;;;;;;2.60;2.40;;;19.30;99.90;;;;;;5016607;28;20257;-72
2022/06/09 00:35:51;;;;;;;2.87;2.67;;;19.30;99.90;;;;;;5039940;28;20273;-74
2022/06/09 00:38:17;;;;;;;2.43;2.27;;;19.30;99.90;;;;;;5018207;28;20295;-72
2022/06/09 00:40:43;;;;;;;2.73;2.53;;;19.30;99.90;;;;;;5034870;28;20241;-66
2022/06/09 00:43:08;;;;;;;2.80;2.60;;;19.40;99.90;;;;;;5020270;28;20219;-66
2022/06/09 00:45:39;;;;;;;2.97;2.77;;;19.40;99.90;;;;;;5032649;28;20231;-67
2022/06/09 00:48:30;;;;;;;2.90;2.70;;;19.40;99.90;;;;;;5017750;28;20244;-66
2022/06/09 00:51:28;;;;;;;3.53;3.23;;;19.30;99.90;;;;;;5029527;28;20248;-66
2022/06/09 00:54:03;;;;;;;3.00;2.80;;;19.20;99.90;;;;;;5009446;28;20580;-67
2022/06/09 00:56:29;;;;;;;3.07;2.87;;;19.20;99.90;;;;;;5026259;28;20303;-66
2022/06/09 00:58:56;;;;;;;5.30;2.93;;;19.20;99.90;;;;;;5015510;28;20713;-66
2022/06/09 01:01:23;;;;;;;2.50;2.37;;;19.20;99.90;;;;;;5031126;28;20978;-66
2022/06/09 01:03:59;;;;;;;2.53;2.27;;;19.10;99.90;;;;;;5014074;28;20263;-66
2022/06/09 01:06:30;;;;;;;3.43;2.43;;;19.10;99.90;;;;;;5013498;28;20214;-66
2022/06/09 01:09:04;;;;;;;2.80;2.63;;;19.00;99.90;;;;;;5003425;28;20199;-66
2022/06/09 01:11:29;;;;;;;2.80;2.20;;;19.00;99.90;;;;;;5005074;28;20305;-65
2022/06/09 01:13:57;;;;;;;2.30;2.20;;;19.00;99.90;;;;;;5019325;28;20296;-65
2022/06/09 01:16:32;;;;;;;2.83;2.63;;;19.00;99.90;;;;;;5027623;28;20684;-65
2022/06/09 01:19:04;;;;;;;3.00;2.33;;;19.00;99.90;;;;;;5019694;28;20212;-66
2022/06/09 01:21:35;;;;;;;3.10;2.37;;;18.90;99.90;;;;;;5015945;28;20230;-65
2022/06/09 01:24:18;;;;;;;3.27;2.97;;;19.00;99.90;;;;;;5014248;28;20235;-64
2022/06/09 01:27:44;;;;;;;2.80;2.60;;;18.90;99.90;;;;;;5021464;28;20222;-64
2022/06/09 01:30:20;;;;;;;2.50;2.40;;;18.90;99.90;;;;;;4992298;28;20223;-65
2022/06/09 01:32:58;;;;;;;3.33;2.60;;;18.80;99.90;;;;;;5011512;28;20685;-64
2022/06/09 01:35:31;;;;;;;2.80;2.60;;;18.70;99.90;;;;;;5007002;28;20679;-65
2022/06/09 01:37:59;;;;;;;3.57;3.27;;;18.70;99.90;;;;;;5008508;28;20295;-65
2022/06/09 01:40:25;;;;;;;2.40;2.20;;;18.70;99.90;;;;;;5028449;28;20675;-65
2022/06/09 01:42:56;;;;;;;2.50;2.30;;;18.70;99.90;;;;;;5038576;28;20253;-65
2022/06/09 01:45:40;;;;;;;2.27;2.07;;;18.70;99.90;;;;;;5016139;28;20207;-64
2022/06/09 01:48:14;;;;;;;2.40;2.30;;;18.70;99.90;;;;;;5020767;28;20294;-64
2022/06/09 01:50:52;;;;;;;2.03;1.93;;;18.70;99.90;;;;;;5024034;28;20207;-65
2022/06/09 01:53:34;;;;;;;3.30;2.40;;;18.70;99.90;;;;;;5016756;28;20186;-64
2022/06/09 01:56:15;;;;;;;4.07;2.10;;;18.60;99.90;;;;;;5007057;28;20577;-65
2022/06/09 01:58:55;;;;;;;3.13;2.00;;;18.60;99.90;;;;;;5014629;28;20186;-65
2022/06/09 02:01:26;;;;;;;2.17;2.07;;;18.60;99.90;;;;;;5013935;28;20535;-65
2022/06/09 02:03:56;;;;;;;3.93;2.10;;;18.60;99.90;;;;;;5007734;28;20210;-65
2022/06/09 02:06:22;;;;;;;2.40;2.30;;;18.60;99.90;;;;;;5005848;28;20270;-66
2022/06/09 02:08:48;;;;;;;2.80;1.97;;;18.50;99.90;;;;;;5046074;28;20728;-66
2022/06/09 02:11:14;;;;;;;3.03;2.47;;;18.50;99.90;;;;;;5025365;28;20257;-66
2022/06/09 02:13:44;;;;;;;2.23;2.00;;;18.50;99.90;;;;;;5031909;28;20202;-66
2022/06/09 02:16:14;;;;;;;2.93;1.67;;;18.40;99.90;;;;;;5022579;28;20628;-67
2022/06/09 02:18:44;;;;;;;2.30;1.93;;;18.40;99.90;;;;;;5007305;28;20747;-65
2022/06/09 02:21:19;;;;;;;1.83;1.73;;;18.40;99.90;;;;;;5005331;28;20202;-66
2022/06/09 02:23:47;;;;;;;2.43;2.20;;;18.40;99.90;;;;;;5006985;28;20554;-65
2022/06/09 02:26:13;;;;;;;2.33;2.00;;;18.30;99.90;;;;;;5009666;28;20297;-65
2022/06/09 02:28:39;;;;;;;1.63;1.53;;;18.30;99.90;;;;;;5045411;28;20199;-65
2022/06/09 02:31:05;;;;;;;2.80;1.50;;;18.30;99.90;;;;;;5014806;28;20194;-65
2022/06/09 02:33:30;;;;;;;2.30;2.17;;;18.20;99.90;;;;;;5029114;28;20575;-65
2022/06/09 02:35:56;;;;;;;2.87;2.07;;;18.20;99.90;;;;;;5033771;28;20375;-64
2022/06/09 02:38:22;;;;;;;3.63;2.20;;;18.10;99.90;;;;;;5026177;28;20192;-65
2022/06/09 02:40:48;;;;;;;2.53;2.10;;;18.10;99.90;;;;;;5034837;28;20193;-65
2022/06/09 02:43:14;;;;;;;2.77;2.53;;;18.10;99.90;;;;;;5025187;28;20213;-65
2022/06/09 02:45:41;;;;;;;2.37;2.17;;;18.00;99.90;;;;;;5029757;28;20200;-65
2022/06/09 02:48:07;;;;;;;2.07;1.93;;;18.00;99.90;;;;;;5016572;28;20217;-65
2022/06/09 02:50:33;;;;;;;2.93;2.50;;;18.00;99.90;;;;;;5028163;28;20198;-65
2022/06/09 02:52:59;;;;;;;3.57;2.50;;;17.90;99.90;;;;;;5029183;28;20291;-65
2022/06/09 02:55:25;;;;;;;3.63;2.37;;;17.90;99.90;;;;;;5022982;28;20240;-65
2022/06/09 02:57:51;;;;;;;3.13;2.30;;;17.80;99.90;;;;;;5031292;28;20210;-64
2022/06/09 03:00:17;;;;;;;2.90;2.27;;;17.80;99.90;;;;;;5016079;28;20190;-64
2022/06/09 03:02:49;;;;;;;4.07;2.53;;;17.80;99.90;;;;;;5022466;28;20196;-64
2022/06/09 03:05:16;;;;;;;2.00;1.80;;;17.80;99.90;;;;;;5018651;28;20254;-65
2022/06/09 03:07:41;;;;;;;2.17;1.90;;;17.70;99.90;;;;;;5029200;28;20705;-65
2022/06/09 03:10:07;;;;;;;3.33;1.80;;;17.70;99.90;;;;;;5024307;28;20186;-65
2022/06/09 03:12:33;;;;;;;2.23;2.00;;;17.70;99.90;;;;;;5036247;28;20200;-64
2022/06/09 03:14:58;;;;;;;2.83;2.27;;;17.70;99.90;;;;;;5011523;28;20189;-65
2022/06/09 03:17:25;;;;;;;2.43;1.93;;;17.70;99.90;;;;;;5030902;28;20220;-66
2022/06/09 03:19:50;;;;;;;3.03;2.10;;;17.70;99.90;;;;;;5022732;28;20233;-66
2022/06/09 03:22:17;;;;;;;3.30;2.00;;;17.70;99.90;;;;;;5033936;28;20188;-66
2022/06/09 03:24:43;;;;;;;3.27;2.13;;;17.70;99.90;;;;;;5014230;28;20201;-63
2022/06/09 03:27:09;;;;;;;2.97;2.27;;;17.70;99.90;;;;;;5021041;28;20336;-66
2022/06/09 03:29:35;;;;;;;2.30;1.70;;;17.70;99.90;;;;;;5031707;28;20556;-64
2022/06/09 03:32:00;;;;;;;2.10;1.90;;;17.60;99.90;;;;;;5024437;28;20204;-64
2022/06/09 03:34:26;;;;;;;2.53;2.33;;;17.60;99.90;;;;;;5012727;28;20217;-65
2022/06/09 03:36:51;;;;;;;4.03;2.00;;;17.60;99.90;;;;;;5024980;28;20470;-65
2022/06/09 03:39:17;;;;;;;4.80;1.97;;;17.60;99.90;;;;;;5016046;28;20222;-65
2022/06/09 03:41:42;;;;;;;2.00;1.90;;;17.60;99.90;;;;;;5026532;28;20656;-66
2022/06/09 03:44:08;;;;;;;2.40;2.13;;;17.50;99.90;;;;;;5014060;28;20386;-66
2022/06/09 03:46:33;;;;;;;3.70;2.20;;;17.50;99.90;;;;;;5029540;28;20288;-66
2022/06/09 03:48:59;;;;;;;2.07;1.77;;;17.50;99.90;;;;;;5007612;28;20212;-65
2022/06/09 03:51:26;;;;;;;4.70;1.97;;;17.50;99.90;;;;;;5018985;28;20200;-65
2022/06/09 03:53:52;;;;;;;4.37;1.97;;;17.50;99.90;;;;;;5022696;28;20275;-66
2022/06/09 03:56:20;;;;;;;2.23;1.80;;;17.50;99.90;;;;;;5013344;28;21006;-66
2022/06/09 03:58:46;;;;;;;4.30;2.87;;;17.50;99.90;;;;;;5029982;28;20262;-65
2022/06/09 04:01:13;;;;;;;2.77;2.30;;;17.50;99.90;;;;;;5017339;28;20193;-66
2022/06/09 04:03:46;;;;;;;3.90;2.10;;;17.60;99.90;;;;;;5029325;28;20185;-66
2022/06/09 04:06:14;;;;;;;1.97;1.80;;;17.60;99.90;;;;;;5005459;28;20650;-65
2022/06/09 04:08:40;;;;;;;3.50;2.13;;;17.60;99.90;;;;;;5025427;28;20648;-65
2022/06/09 04:11:06;;;;;;;2.33;1.80;;;17.60;99.90;;;;;;5014854;28;20436;-65
2022/06/09 04:13:31;;;;;;;4.30;2.10;;;17.60;99.90;;;;;;5044337;28;20236;-65
2022/06/09 04:15:57;;;;;;;5.93;1.80;;;17.60;99.90;;;;;;5013697;28;20240;-65
2022/06/09 04:18:22;;;;;;;4.33;1.77;;;17.60;99.90;;;;;;5038663;28;20273;-64
2022/06/09 04:20:48;;;;;;;3.13;2.40;;;17.60;99.90;;;;;;5016848;28;20206;-64
2022/06/09 04:23:13;;;;;;;2.77;1.87;;;17.60;99.90;;;;;;5035558;28;20181;-64
2022/06/09 04:25:39;;;;;;;1.67;1.57;;;17.60;99.90;;;;;;5013539;28;20758;-65
2022/06/09 04:28:05;;;;;;;2.30;1.80;;;17.60;99.90;;;;;;5041450;28;20203;-64
2022/06/09 04:30:30;;;;;;;2.27;2.07;;;17.70;99.90;;;;;;5021442;28;20199;-64
2022/06/09 04:32:57;;;;;;;3.73;2.30;;;17.60;99.90;;;;;;5022291;28;20202;-65
2022/06/09 04:35:23;;;;;;;3.67;1.93;;;17.70;99.90;;;;;;5015366;28;20198;-65
2022/06/09 04:38:01;;;;;;;4.10;2.00;;;17.80;99.90;;;;;;5039640;28;20193;-65
2022/06/09 04:40:37;;;;;;;2.40;1.67;;;17.80;99.90;;;;;;5003644;28;20221;-65
2022/06/09 04:43:05;;;;;;;5.40;2.00;;;17.90;99.90;;;;;;5031497;28;20207;-65
2022/06/09 04:45:31;;;;;;;2.37;1.70;;;18.00;99.90;;;;;;5021234;28;20218;-66
2022/06/09 04:47:57;;;;;;;2.40;1.77;;;18.10;99.90;;;;;;5031239;28;20290;-66
2022/06/09 04:50:23;;;;;;;3.00;1.97;;;18.10;99.90;;;;;;5022093;28;20202;-68
2022/06/09 04:52:49;;;;;;;3.10;1.73;;;18.30;99.90;;;;;;5035058;28;20201;-66
2022/06/09 04:55:15;;;;;;;2.63;2.33;;;18.40;99.90;;;;;;5017471;28;20234;-66
2022/06/09 04:57:40;;;;;;;2.30;1.50;;;18.50;99.90;;;;;;5036015;28;20639;-66
2022/06/09 05:00:08;;;;;;;1.87;1.67;;;18.60;99.90;;;;;;5031936;28;20222;-66
2022/06/09 05:02:33;;;;;;;2.53;1.97;;;18.70;99.90;;;;;;5019877;28;20661;-66
2022/06/09 05:04:59;;;;;;;6.03;1.40;;;18.80;99.90;;;;;;5025197;28;20203;-66
2022/06/09 05:07:25;;;;;;;5.00;1.80;;;18.90;99.90;;;;;;5028194;28;20258;-68
2022/06/09 05:09:50;;;;;;;3.03;1.90;;;18.90;99.90;;;;;;5027079;28;20205;-67
2022/06/09 05:12:16;;;;;;;3.77;2.00;;;19.00;99.90;;;;;;5021109;28;20667;-68
2022/06/09 05:14:42;;;;;;;1.37;1.27;;;19.00;99.90;;;;;;5030442;28;20566;-66
2022/06/09 05:17:07;;;;;;;2.23;1.97;;;18.90;99.90;;;;;;5018786;28;20217;-66
2022/06/09 05:19:33;;;;;;;3.67;1.90;;;18.90;99.90;;;;;;5016996;28;20686;-66
2022/06/09 05:21:58;;;;;;;1.80;1.33;;;18.90;99.90;;;;;;4965949;28;20184;-67
2022/06/09 05:24:24;;;;;;;2.30;2.00;;;18.90;99.90;;;;;;5018862;28;20200;-67
2022/06/09 05:26:50;;;;;;;3.40;1.57;;;18.90;99.90;;;;;;5017514;28;20567;-68
2022/06/09 05:29:16;;;;;;;2.13;1.77;;;18.90;99.90;;;;;;5018531;28;20675;-68
2022/06/09 05:31:43;;;;;;;1.70;1.60;;;18.80;99.90;;;;;;5018491;28;20180;-66
2022/06/09 05:34:09;;;;;;;3.47;1.77;;;18.90;99.90;;;;;;5017628;28;20196;-67
2022/06/09 05:36:35;;;;;;;5.10;1.63;;;18.90;99.90;;;;;;5016508;28;20643;-67
2022/06/09 05:47:13;;;;;;;3.03;2.70;;;19.00;99.90;;;;;;5008100;28;20330;-65
2022/06/09 05:49:38;;;;;;;4.43;2.47;;;18.90;99.90;;;;;;5028777;28;20690;-65
2022/06/09 05:52:04;;;;;;;3.27;1.70;;;19.00;99.90;;;;;;5031147;28;20194;-65
2022/06/09 05:54:29;;;;;;;3.87;2.07;;;18.90;99.90;;;;;;5020208;28;20232;-66
2022/06/09 05:56:55;;;;;;;1.97;1.87;;;18.90;99.90;;;;;;5020008;28;20543;-66
2022/06/09 05:59:23;;;;;;;3.33;1.90;;;18.90;99.90;;;;;;5030932;28;20224;-66
2022/06/09 06:01:49;;;;;;;4.27;1.57;;;18.80;99.90;;;;;;5011324;28;20964;-66
2022/06/09 06:04:15;;;;;;;1.40;1.30;;;18.90;99.90;;;;;;5036638;28;20207;-65
2022/06/09 06:06:41;;;;;;;2.00;1.70;;;18.90;99.90;;;;;;5014774;28;20243;-65
2022/06/09 06:09:10;;;;;;;5.40;1.40;;;18.80;99.90;;;;;;5026435;28;20293;-65
2022/06/09 06:11:38;;;;;;;2.10;1.60;;;18.80;99.90;;;;;;5015970;28;20192;-65
2022/06/09 06:14:04;;;;;;;3.00;1.50;;;18.90;99.90;;;;;;5025097;28;20207;-64
2022/06/09 06:16:30;;;;;;;1.73;1.10;;;18.90;99.90;;;;;;5027389;28;20610;-65
2022/06/09 06:18:56;;;;;;;1.93;1.33;;;18.90;99.90;;;;;;5021212;28;20191;-64
2022/06/09 06:21:23;;;;;;;1.60;1.10;;;18.70;99.90;;;;;;5018430;28;20185;-66
2022/06/09 06:23:49;;;;;;;2.90;1.50;;;18.70;99.90;;;;;;5023436;28;20203;-64
2022/06/09 06:26:15;;;;;;;2.93;1.00;;;18.80;99.90;;;;;;5025493;28;20555;-64
2022/06/09 06:28:40;;;;;;;1.43;1.33;;;18.80;99.90;;;;;;5020331;28;20211;-66
2022/06/09 06:31:06;;;;;;;2.17;1.50;;;18.80;99.90;;;;;;5046410;28;20772;-67
2022/06/09 06:33:32;;;;;;;2.73;1.53;;;18.90;99.90;;;;;;5022902;28;20233;-66
2022/06/09 06:35:57;;;;;;;1.30;1.20;;;18.90;99.90;;;;;;5017597;28;20293;-65
2022/06/09 06:38:23;;;;;;;2.07;1.80;;;19.00;99.90;;;;;;5035937;28;20574;-65
2022/06/09 06:40:49;;;;;;;3.13;1.20;;;19.10;99.90;;;;;;5016598;28;20230;-65
2022/06/09 06:43:14;;;;;;;1.60;1.50;;;19.00;99.90;;;;;;5042510;28;20294;-65
2022/06/09 06:45:41;;;;;;;1.63;1.53;;;19.10;99.90;;;;;;5015344;28;20647;-64
2022/06/09 06:48:06;;;;;;;1.40;1.30;;;19.00;99.90;;;;;;5023389;28;20230;-65
2022/06/09 06:50:32;;;;;;;2.30;2.10;;;19.20;99.90;;;;;;5017169;28;20196;-65
2022/06/09 06:52:58;;;;;;;1.73;1.27;;;19.30;99.90;;;;;;5031531;28;20195;-65
2022/06/09 06:55:23;;;;;;;1.60;1.27;;;19.40;99.90;;;;;;5015577;28;20713;-66
2022/06/09 06:57:49;;;;;;;4.00;1.60;;;19.50;99.90;;;;;;5033862;28;20200;-66
2022/06/09 07:00:19;;;;;;;2.03;1.83;;;19.60;99.90;;;;;;5029360;28;20204;-66
2022/06/09 07:02:45;;;;;;;1.87;1.53;;;19.60;99.90;;;;;;5037960;28;20207;-66
2022/06/09 07:05:11;;;;;;;3.90;1.63;;;19.80;99.90;;;;;;5032259;28;20215;-66
2022/06/09 07:07:39;;;;;;;5.27;2.10;;;19.90;99.90;;;;;;5042826;28;20308;-67
2022/06/09 07:10:06;;;;;;;2.43;1.90;;;20.10;99.90;;;;;;5024663;28;20719;-67
2022/06/09 07:12:32;;;;;;;3.40;2.40;;;20.10;99.90;;;;;;5034725;28;20330;-67
2022/06/09 07:14:58;;;;;;;8.13;2.03;;;20.10;99.90;;;;;;5030723;28;20211;-66
2022/06/09 07:17:24;;;;;;;4.43;2.00;;;19.90;99.90;;;;;;5034648;28;21069;-65
2022/06/09 07:19:50;;;;;;;1.93;1.73;;;19.80;99.90;;;;;;5029239;28;20366;-66
2022/06/09 07:22:15;;;;;;;2.33;1.77;;;19.70;99.90;;;;;;5022168;28;20184;-66
2022/06/09 07:24:41;;;;;;;2.80;1.73;;;19.60;99.90;;;;;;5028553;28;20206;-64
2022/06/09 07:27:07;;;;;;;2.73;2.00;;;19.30;99.90;;;;;;5013117;28;20247;-64
2022/06/09 07:29:33;;;;;;;3.50;1.80;;;19.10;99.90;;;;;;5023084;28;20639;-65
2022/06/09 07:32:00;;;;;;;2.03;1.73;;;19.10;99.90;;;;;;5018754;28;20180;-65
2022/06/09 07:34:26;;;;;;;2.30;1.90;;;19.00;99.90;;;;;;5038019;28;20248;-65
2022/06/09 07:36:51;;;;;;;3.30;2.30;;;19.00;99.90;;;;;;5021042;28;20647;-64
2022/06/09 07:39:17;;;;;;;4.33;2.13;;;18.80;99.90;;;;;;5022913;28;20217;-65
2022/06/09 07:41:42;;;;;;;6.10;2.63;;;18.70;99.90;;;;;;5015884;28;20193;-65
2022/06/09 07:44:09;;;;;;;5.40;2.17;;;18.70;99.90;;;;;;5011522;28;20206;-66
2022/06/09 07:46:35;;;;;;;3.90;2.53;;;18.70;99.90;;;;;;5023220;28;20227;-66
2022/06/09 07:49:02;;;;;;;3.53;3.23;;;18.60;99.90;;;;;;5011533;28;20298;-66
2022/06/09 07:51:29;;;;;;;4.87;1.97;;;18.60;99.90;;;;;;5039851;28;20252;-65
2022/06/09 07:53:55;;;;;;;3.27;1.93;;;18.60;99.90;;;;;;5018550;28;20334;-65
2022/06/09 07:56:20;;;;;;;3.83;1.87;;;18.70;99.90;;;;;;5036927;28;20294;-65
2022/06/09 07:58:46;;;;;;;3.90;2.10;;;18.60;99.90;;;;;;5017981;28;20207;-65
2022/06/09 08:01:13;;;;;;;4.23;2.13;;;18.60;99.90;;;;;;5037164;28;20588;-65
2022/06/09 08:03:40;;;;;;;1.93;1.47;;;18.60;99.90;;;;;;5018763;28;20211;-66
2022/06/09 08:06:07;;;;;;;4.63;2.40;;;18.50;99.90;;;;;;5034240;28;20296;-67
2022/06/09 08:08:33;;;;;;;2.30;2.10;;;18.50;99.90;;;;;;5015867;28;20219;-66
2022/06/09 08:10:59;;;;;;;3.97;2.10;;;18.60;99.90;;;;;;5029822;28;20199;-67
2022/06/09 08:13:25;;;;;;;4.60;2.00;;;18.60;99.90;;;;;;5017877;28;20699;-66
2022/06/09 08:15:50;;;;;;;3.80;2.33;;;18.60;99.90;;;;;;5035556;28;20201;-67
2022/06/09 08:18:16;;;;;;;2.67;2.07;;;18.60;99.90;;;;;;5027388;28;20207;-66
2022/06/09 08:20:44;;;;;;;1.50;1.40;;;18.50;99.90;;;;;;5031807;28;20198;-66
2022/06/09 08:23:16;;;;;;;3.20;2.27;;;18.50;99.90;;;;;;5023130;28;20199;-66
2022/06/09 08:25:43;;;;;;;2.93;1.60;;;18.40;99.90;;;;;;5041234;28;20239;-66
2022/06/09 08:28:10;;;;;;;1.97;1.87;;;18.40;99.90;;;;;;5023558;28;20251;-66
2022/06/09 08:30:37;;;;;;;2.03;1.93;;;18.50;99.90;;;;;;5021047;28;20261;-67
2022/06/09 08:33:03;;;;;;;2.60;2.20;;;18.50;99.90;;;;;;5031766;28;20206;-67
2022/06/09 08:35:29;;;;;;;2.00;1.70;;;18.40;99.90;;;;;;5028490;28;20248;-65
2022/06/09 08:37:55;;;;;;;2.10;2.00;;;18.40;99.90;;;;;;5026879;28;20615;-66
2022/06/09 08:40:30;;;;;;;2.33;2.13;;;18.50;99.90;;;;;;5025902;28;20603;-65
2022/06/09 08:43:22;;;;;;;3.07;2.37;;;18.60;99.90;;;;;;5010911;28;20293;-65
2022/06/09 08:45:49;;;;;;;3.20;2.43;;;18.50;99.90;;;;;;5020797;28;20673;-66
2022/06/09 08:48:22;;;;;;;2.23;1.83;;;18.50;99.90;;;;;;5029902;28;20776;-65
2022/06/09 08:50:56;;;;;;;4.80;2.77;;;18.50;99.90;;;;;;5019580;28;20192;-64
2022/06/09 08:53:28;;;;;;;5.13;2.27;;;18.60;99.90;;;;;;5004273;28;20198;-64
2022/06/09 08:55:58;;;;;;;2.03;1.93;;;18.70;99.90;;;;;;5005180;28;20267;-64
2022/06/09 08:58:35;;;;;;;2.83;1.70;;;18.80;99.90;;;;;;5016412;28;20243;-64
2022/06/09 09:01:10;;;;;;;2.07;1.87;;;18.90;99.90;;;;;;5005643;28;20222;-65
2022/06/09 09:03:40;;;;;;;3.37;2.53;;;19.00;99.90;;;;;;5013766;28;20191;-64
2022/06/09 09:06:25;;;;;;;5.47;2.40;;;19.10;99.90;;;;;;5016998;28;20752;-64
2022/06/09 09:08:54;;;;;;;2.30;2.10;;;19.10;99.90;;;;;;5015113;28;20677;-64
2022/06/09 09:11:49;;;;;;;2.87;2.20;;;19.20;99.90;;;;;;5034303;28;20196;-63
2022/06/09 09:14:20;;;;;;;3.13;2.43;;;19.30;99.90;;;;;;5003693;28;20204;-64
2022/06/09 09:16:54;;;;;;;5.47;2.17;;;19.40;99.90;;;;;;5039403;28;20196;-65
2022/06/09 09:20:05;;;;;;;3.00;2.67;;;19.50;99.90;;;;;;5005008;28;20208;-65
2022/06/09 09:22:37;;;;;;;3.20;2.10;;;19.60;99.90;;;;;;5013683;28;20669;-65
2022/06/09 09:25:13;;;;;;;4.07;2.17;;;19.80;99.90;;;;;;5004724;28;20204;-66
2022/06/09 09:27:49;;;;;;;2.90;2.10;;;20.00;99.90;;;;;;5030604;28;20212;-65
2022/06/09 09:30:23;;;;;;;2.33;2.13;;;20.20;99.90;;;;;;5016304;28;20676;-65
2022/06/09 09:32:52;;;;;;;2.37;2.23;;;20.40;99.90;;;;;;5032690;28;20196;-65
2022/06/09 09:35:22;;;;;;;4.23;2.00;;;20.40;99.90;;;;;;5014881;28;20299;-64
2022/06/09 09:37:51;;;;;;;1.60;1.50;;;20.40;99.90;;;;;;5022896;28;20204;-65
2022/06/09 09:40:31;;;;;;;3.17;2.23;;;20.40;99.90;;;;;;5017260;28;20203;-64
2022/06/09 09:43:00;;;;;;;2.33;2.13;;;20.60;99.90;;;;;;5020957;28;20195;-65
2022/06/09 09:45:39;;;;;;;3.05;2.53;;;20.40;99.90;;;;;;5028622;28;20195;-64
2022/06/09 09:48:26;;;;;;;3.57;2.00;;;20.40;99.90;;;;;;5018246;28;20226;-67
2022/06/09 09:50:53;;;;;;;2.00;1.90;;;20.50;99.90;;;;;;5007919;28;20196;-68
2022/06/09 09:53:19;;;;;;;2.27;2.07;;;20.50;99.90;;;;;;5023282;28;21039;-67
2022/06/09 09:56:15;;;;;;;3.90;2.63;;;20.60;99.90;;;;;;5024303;28;20232;-66
2022/06/09 09:58:46;;;;;;;3.07;2.07;;;20.80;99.90;;;;;;5008841;28;20293;-75
2022/06/09 10:01:34;;;;;;;1.95;1.80;;;21.10;99.90;;;;;;5019497;28;20211;-75
2022/06/09 10:09:38;;;;;;;2.63;2.40;;;21.40;99.90;;;;;;5016926;28;20297;-74
2022/06/09 10:12:17;;;;;;;2.83;2.15;;;21.20;99.90;;;;;;5034042;28;20250;-66
2022/06/09 10:14:47;;;;;;;4.50;2.53;;;21.10;99.90;;;;;;5013917;28;20553;-73
2022/06/09 10:17:44;;;;;;;3.67;2.70;;;21.00;99.90;;;;;;5028964;28;20229;-76
2022/06/09 10:20:21;;;;;;;4.63;3.45;;;21.00;99.90;;;;;;5031225;28;20207;-76
2022/06/09 10:23:11;;;;;;;3.00;2.53;;;20.70;99.90;;;;;;5019473;28;20231;-77
2022/06/09 10:25:48;;;;;;;4.03;2.92;;;20.70;99.90;;;;;;5011250;28;20192;-73
2022/06/09 10:28:43;;;;;;;7.50;3.07;;;20.60;99.90;;;;;;5015240;28;20277;-75
2022/06/09 10:31:34;;;;;;;3.33;2.60;;;20.70;99.90;;;;;;5007414;28;20242;-73
2022/06/09 10:34:18;;;;;;;3.37;2.83;;;20.80;99.90;;;;;;5005170;28;21037;-73
2022/06/09 10:37:02;;;;;;;4.82;3.20;;;20.70;99.90;;;;;;5025339;28;20186;-78
2022/06/09 10:39:52;;;;;;;5.23;2.40;;;20.80;99.90;;;;;;5017074;28;20669;-76
2022/06/09 10:42:59;;;;;;;2.60;2.40;;;20.70;99.90;;;;;;5007725;28;20274;-75
2022/06/09 10:45:34;;;;;;;4.17;2.50;;;20.80;99.90;;;;;;5007328;28;20195;-74
2022/06/09 10:57:34;;;;;;;3.53;3.10;;;20.90;99.90;;;;;;5008102;28;20293;-76
2022/06/09 11:00:02;;;;;;;3.40;3.10;;;21.00;99.90;;;;;;5007911;28;20196;-76
2022/06/09 11:02:31;;;;;;;5.87;3.27;;;21.10;99.90;;;;;;5014214;28;20291;-78
2022/06/09 11:04:58;;;;;;;5.43;3.20;;;21.00;99.90;;;;;;5008803;28;20565;-74
2022/06/09 11:07:32;;;;;;;5.28;2.72;;;21.00;99.90;;;;;;5015323;28;20211;-75
2022/06/09 11:10:22;;;;;;;2.93;2.70;;;20.90;99.90;;;;;;5013683;28;20353;-76
2022/06/09 11:13:11;;;;;;;3.73;3.10;;;20.90;99.90;;;;;;5015327;28;20580;-71
2022/06/09 11:15:49;;;;;;;3.65;3.08;;;20.90;99.90;;;;;;5020744;28;20894;-74
2022/06/09 11:18:25;;;;;;;2.93;2.60;;;21.00;99.90;;;;;;5004563;28;20227;-76
2022/06/09 11:20:56;;;;;;;2.92;2.70;;;21.10;99.90;;;;;;5006267;28;20290;-73
2022/06/09 11:23:48;;;;;;;3.43;3.23;;;21.20;99.90;;;;;;5021279;28;20207;-76
2022/06/09 11:26:35;;;;;;;3.08;2.80;;;21.20;99.90;;;;;;5014683;28;20275;-73
2022/06/09 11:29:13;;;;;;;2.63;2.43;;;21.30;99.90;;;;;;5004176;28;20212;-73
2022/06/09 11:31:38;;;;;;;4.07;3.63;;;21.30;99.90;;;;;;5005878;28;20289;-74
2022/06/09 11:34:31;;;;;;;3.27;3.07;;;21.40;99.90;;;;;;5015074;28;20609;-73
2022/06/09 11:37:12;;;;;;;3.67;2.75;;;21.40;99.90;;;;;;5031703;28;20635;-73
2022/06/09 11:39:52;;;;;;;5.57;3.17;;;21.50;99.90;;;;;;5008855;28;20191;-73
2022/06/09 11:42:58;;;;;;;3.80;2.78;;;21.50;99.90;;;;;;5006583;28;20212;-73
2022/06/09 11:45:33;;;;;;;3.47;3.17;;;21.60;99.90;;;;;;5012291;28;20663;-73
2022/06/09 11:48:01;;;;;;;3.72;3.20;;;21.60;99.90;;;;;;5013720;28;20716;-72
2022/06/09 11:50:39;;;;;;;3.30;2.95;;;21.70;99.90;;;;;;5017413;28;20200;-74
2022/06/09 11:53:06;;;;;;;4.20;3.42;;;21.70;99.90;;;;;;5015009;28;20204;-74
2022/06/09 11:55:58;;;;;;;3.95;3.13;;;21.70;99.90;;;;;;5029867;28;20309;-73
2022/06/09 11:58:49;;;;;;;3.47;3.05;;;21.80;99.90;;;;;;5003620;28;20234;-74
2022/06/09 12:02:03;;;;;;;3.75;3.42;;;21.90;99.90;;;;;;5013117;28;20354;-73
2022/06/09 12:04:59;;;;;;;4.70;3.67;;;21.90;99.90;;;;;;5032004;28;20344;-74
2022/06/09 12:07:51;;;;;;;6.78;3.70;;;22.10;99.90;;;;;;5017990;28;20225;-75
2022/06/09 12:10:42;;;;;;;3.60;3.13;;;22.30;99.90;;;;;;5017970;28;20177;-76
2022/06/09 12:13:52;;;;;;;5.90;3.83;;;22.60;99.90;;;;;;5013725;28;20207;-74
2022/06/09 12:16:32;;;;;;;4.25;3.22;;;23.00;99.90;;;;;;5014054;28;20204;-73
2022/06/09 12:19:21;;;;;;;4.18;3.65;;;23.30;99.90;;;;;;5008032;28;20568;-74
2022/06/09 12:21:51;;;;;;;3.22;3.03;;;23.60;99.90;;;;;;5017552;28;20284;-75
2022/06/09 12:24:17;;;;;;;5.63;3.28;;;23.90;99.90;;;;;;5003615;28;20216;-73
2022/06/09 12:26:42;;;;;;;4.00;3.55;;;24.20;99.70;;;;;;5035530;28;20204;-73
2022/06/09 12:29:40;;;;;;;3.08;2.88;;;24.20;99.70;;;;;;5016029;28;20223;-75
2022/06/09 12:32:08;;;;;;;5.47;3.75;;;24.10;99.90;;;;;;5010146;28;20194;-75
2022/06/09 12:34:51;;;;;;;4.07;3.42;;;23.90;99.90;;;;;;5015392;28;20178;-74
2022/06/09 12:37:33;;;;;;;5.13;3.45;;;23.60;99.80;;;;;;5014504;28;20202;-74
2022/06/09 12:40:01;;;;;;;3.92;3.00;;;23.20;99.90;;;;;;5038888;28;20195;-76
2022/06/09 12:42:50;;;;;;;3.15;2.95;;;22.90;99.90;;;;;;5025372;28;20248;-73
2022/06/09 12:45:19;;;;;;;3.53;3.22;;;22.50;99.90;;;;;;5020374;28;20222;-74
2022/06/09 12:48:12;;;;;;;3.28;3.08;;;22.10;99.90;;;;;;5030021;28;20240;-75
2022/06/09 12:50:44;;;;;;;4.85;4.03;;;21.70;99.90;;;;;;5013016;28;20201;-71
2022/06/09 12:53:26;;;;;;;6.57;4.17;;;21.50;99.90;;;;;;5013070;28;20199;-76
2022/06/09 12:55:59;;;;;;;6.72;4.95;;;21.30;99.90;;;;;;5024253;28;20372;-73
2022/06/09 12:58:46;;;;;;;5.10;4.38;;;21.20;99.90;;;;;;5003208;28;20238;-74
2022/06/09 13:01:28;;;;;;;4.90;4.40;;;21.10;99.90;;;;;;5016302;28;20198;-73
2022/06/09 13:04:02;;;;;;;4.80;4.20;;;20.90;99.90;;;;;;5019494;28;20200;-73
2022/06/09 13:06:35;;;;;;;4.67;4.13;;;20.80;99.90;;;;;;5024921;28;20264;-74
2022/06/09 13:09:14;;;;;;;4.47;4.13;;;20.80;99.90;;;;;;5006601;28;20200;-74
2022/06/09 13:14:31;;;;;;;4.47;4.07;;;20.60;99.90;;;;;;5007855;28;20187;-73
2022/06/09 13:17:02;;;;;;;4.63;4.17;;;20.70;99.90;;;;;;5018237;28;20295;-73
2022/06/09 13:19:29;;;;;;;6.90;4.67;;;20.80;99.90;;;;;;5018033;28;20743;-73
2022/06/09 13:21:58;;;;;;;5.37;4.93;;;21.00;99.90;;;;;;5010977;28;20564;-74
2022/06/09 13:24:37;;;;;;;5.53;4.85;;;21.20;99.90;;;;;;5033040;28;20227;-73
2022/06/09 13:27:09;;;;;;;4.80;4.40;;;21.30;99.90;;;;;;5005877;28;20224;-78
2022/06/09 13:29:51;;;;;;;6.60;5.28;;;21.40;99.90;;;;;;5007096;28;20192;-79
2022/06/09 13:32:22;;;;;;;5.25;4.75;;;21.60;99.90;;;;;;5008045;28;20651;-74
2022/06/09 13:34:50;;;;;;;5.53;5.03;;;21.70;99.90;;;;;;5007806;28;20671;-76
2022/06/09 13:37:37;;;;;;;5.07;4.53;;;21.80;99.90;;;;;;5014717;28;20215;-74